sensor_id;sensor_type;location;lat;lon;timestamp;P1;durP1;ratioP1;P2;durP2;ratioP2
67429;SDS011;54298;52.076;5.264;2023-01-28T00:01:03;12.1;;;11.0;;
67429;SDS011;54298;52.076;5.264;2023-01-28T00:02:40;11.3;;;10.21;;
67429;SDS011;54298;52.076;5.264;2023-01-28T00:04:17;10.21;;;9.1;;
67429;SDS011;54298;52.076;5.264;2023-01-28T00:07:38;10.8;;;9.71;;
67429;SDS011;54298;52.076;5.264;2023-01-28T00:09:14;10.5;;;9.5;;
67429;SDS011;54298;52.076;5.264;2023-01-28T00:10:50;10.1;;;9.21;;
67429;SDS011;54298;52.076;5.264;2023-01-28T00:14:03;10.5;;;9.5;;
67429;SDS011;54298;52.076;5.264;2023-01-28T00:15:40;10.1;;;9.1;;
67429;SDS011;54298;52.076;5.264;2023-01-28T00:17:16;11.1;;;10.1;;
67429;SDS011;54298;52.076;5.264;2023-01-28T00:18:53;10.21;;;9.21;;
67429;SDS011;54298;52.076;5.264;2023-01-28T00:22:07;11.2;;;10.21;;
67429;SDS011;54298;52.076;5.264;2023-01-28T00:23:46;9.9;;;8.9;;
67429;SDS011;54298;52.076;5.264;2023-01-28T00:25:26;10.4;;;9.4;;
67429;SDS011;54298;52.076;5.264;2023-01-28T00:28:38;9.9;;;9.0;;
67429;SDS011;54298;52.076;5.264;2023-01-28T00:30:16;10.5;;;9.4;;
67429;SDS011;54298;52.076;5.264;2023-01-28T00:31:53;11.2;;;10.1;;
67429;SDS011;54298;52.076;5.264;2023-01-28T00:33:30;10.4;;;9.31;;
67429;SDS011;54298;52.076;5.264;2023-01-28T00:36:44;10.3;;;9.31;;
67429;SDS011;54298;52.076;5.264;2023-01-28T00:38:20;11.1;;;10.0;;
67429;SDS011;54298;52.076;5.264;2023-01-28T00:39:56;10.8;;;9.81;;
67429;SDS011;54298;52.076;5.264;2023-01-28T00:43:09;11.6;;;10.5;;
67429;SDS011;54298;52.076;5.264;2023-01-28T00:44:45;11.0;;;10.0;;
67429;SDS011;54298;52.076;5.264;2023-01-28T00:46:21;11.3;;;10.21;;
67429;SDS011;54298;52.076;5.264;2023-01-28T00:49:35;10.6;;;9.6;;
67429;SDS011;54298;52.076;5.264;2023-01-28T00:51:12;11.7;;;10.1;;
67429;SDS011;54298;52.076;5.264;2023-01-28T00:52:51;10.7;;;9.6;;
67429;SDS011;54298;52.076;5.264;2023-01-28T00:54:27;11.4;;;10.21;;
67429;SDS011;54298;52.076;5.264;2023-01-28T00:57:42;11.2;;;10.1;;
67429;SDS011;54298;52.076;5.264;2023-01-28T00:59:18;11.4;;;10.3;;
67429;SDS011;54298;52.076;5.264;2023-01-28T01:00:54;11.4;;;10.21;;
67429;SDS011;54298;52.076;5.264;2023-01-28T01:04:08;10.9;;;9.81;;
67429;SDS011;54298;52.076;5.264;2023-01-28T01:05:44;12.3;;;10.3;;
67429;SDS011;54298;52.076;5.264;2023-01-28T01:07:22;10.5;;;9.4;;
67429;SDS011;54298;52.076;5.264;2023-01-28T01:10:36;11.1;;;10.0;;
67429;SDS011;54298;52.076;5.264;2023-01-28T01:12:13;11.0;;;9.9;;
67429;SDS011;54298;52.076;5.264;2023-01-28T01:13:50;10.8;;;9.71;;
67429;SDS011;54298;52.076;5.264;2023-01-28T01:15:28;11.0;;;10.0;;
67429;SDS011;54298;52.076;5.264;2023-01-28T01:18:41;11.2;;;10.1;;
67429;SDS011;54298;52.076;5.264;2023-01-28T01:20:19;11.1;;;9.9;;
67429;SDS011;54298;52.076;5.264;2023-01-28T01:21:57;10.21;;;9.21;;
67429;SDS011;54298;52.076;5.264;2023-01-28T01:25:10;11.0;;;9.9;;
67429;SDS011;54298;52.076;5.264;2023-01-28T01:26:48;11.8;;;10.6;;
67429;SDS011;54298;52.076;5.264;2023-01-28T01:28:25;11.1;;;10.0;;
67429;SDS011;54298;52.076;5.264;2023-01-28T01:30:01;11.2;;;10.1;;
67429;SDS011;54298;52.076;5.264;2023-01-28T01:33:14;11.1;;;10.0;;
67429;SDS011;54298;52.076;5.264;2023-01-28T01:34:51;10.6;;;9.6;;
67429;SDS011;54298;52.076;5.264;2023-01-28T01:36:27;10.0;;;9.0;;
67429;SDS011;54298;52.076;5.264;2023-01-28T01:39:42;10.8;;;9.71;;
67429;SDS011;54298;52.076;5.264;2023-01-28T01:41:21;10.1;;;8.9;;
67429;SDS011;54298;52.076;5.264;2023-01-28T01:43:00;11.1;;;10.1;;
67429;SDS011;54298;52.076;5.264;2023-01-28T01:44:54;11.1;;;10.1;;
67429;SDS011;54298;52.076;5.264;2023-01-28T01:48:17;11.6;;;10.5;;
67429;SDS011;54298;52.076;5.264;2023-01-28T01:49:59;11.9;;;10.8;;
67429;SDS011;54298;52.076;5.264;2023-01-28T01:51:41;11.7;;;10.6;;
67429;SDS011;54298;52.076;5.264;2023-01-28T01:53:21;11.7;;;10.6;;
67429;SDS011;54298;52.076;5.264;2023-01-28T01:55:02;12.4;;;11.2;;
67429;SDS011;54298;52.076;5.264;2023-01-28T01:58:26;11.2;;;10.1;;
67429;SDS011;54298;52.076;5.264;2023-01-28T02:00:09;11.8;;;10.6;;
67429;SDS011;54298;52.076;5.264;2023-01-28T02:01:45;11.4;;;10.3;;
67429;SDS011;54298;52.076;5.264;2023-01-28T02:05:07;11.3;;;10.21;;
67429;SDS011;54298;52.076;5.264;2023-01-28T02:06:45;11.1;;;10.0;;
67429;SDS011;54298;52.076;5.264;2023-01-28T02:08:22;11.1;;;10.0;;
67429;SDS011;54298;52.076;5.264;2023-01-28T02:09:58;11.3;;;10.21;;
67429;SDS011;54298;52.076;5.264;2023-01-28T02:13:11;11.2;;;10.1;;
67429;SDS011;54298;52.076;5.264;2023-01-28T02:21:24;11.2;;;10.1;;
67429;SDS011;54298;52.076;5.264;2023-01-28T02:22:18;11.2;;;10.1;;
67429;SDS011;54298;52.076;5.264;2023-01-28T02:24:28;11.3;;;10.1;;
67429;SDS011;54298;52.076;5.264;2023-01-28T02:27:19;11.8;;;10.6;;
67429;SDS011;54298;52.076;5.264;2023-01-28T02:29:04;10.8;;;9.71;;
67429;SDS011;54298;52.076;5.264;2023-01-28T02:30:51;11.7;;;10.6;;
67429;SDS011;54298;52.076;5.264;2023-01-28T02:34:23;9.9;;;8.9;;
67429;SDS011;54298;52.076;5.264;2023-01-28T02:36:13;10.7;;;9.6;;
67429;SDS011;54298;52.076;5.264;2023-01-28T02:38:02;11.6;;;10.21;;
67429;SDS011;54298;52.076;5.264;2023-01-28T02:39:49;11.8;;;10.6;;
67429;SDS011;54298;52.076;5.264;2023-01-28T02:41:30;10.3;;;9.31;;
67429;SDS011;54298;52.076;5.264;2023-01-28T02:43:13;10.3;;;9.31;;
67429;SDS011;54298;52.076;5.264;2023-01-28T02:47:59;10.7;;;9.71;;
67429;SDS011;54298;52.076;5.264;2023-01-28T02:49:36;10.9;;;9.81;;
67429;SDS011;54298;52.076;5.264;2023-01-28T02:53:41;11.5;;;10.4;;
67429;SDS011;54298;52.076;5.264;2023-01-28T02:55:51;11.8;;;10.7;;
67429;SDS011;54298;52.076;5.264;2023-01-28T02:59:32;12.1;;;10.9;;
67429;SDS011;54298;52.076;5.264;2023-01-28T03:01:17;12.8;;;11.5;;
67429;SDS011;54298;52.076;5.264;2023-01-28T03:03:03;11.5;;;10.3;;
67429;SDS011;54298;52.076;5.264;2023-01-28T03:04:52;12.9;;;10.5;;
67429;SDS011;54298;52.076;5.264;2023-01-28T03:06:38;11.7;;;10.5;;
67429;SDS011;54298;52.076;5.264;2023-01-28T03:09:25;12.0;;;10.8;;
67429;SDS011;54298;52.076;5.264;2023-01-28T03:36:54;11.4;;;10.0;;
67429;SDS011;54298;52.076;5.264;2023-01-28T03:38:33;12.7;;;11.4;;
67429;SDS011;54298;52.076;5.264;2023-01-28T03:40:18;11.8;;;10.6;;
67429;SDS011;54298;52.076;5.264;2023-01-28T03:41:56;12.4;;;11.2;;
67429;SDS011;54298;52.076;5.264;2023-01-28T03:45:13;12.4;;;11.1;;
67429;SDS011;54298;52.076;5.264;2023-01-28T03:46:49;12.1;;;10.9;;
67429;SDS011;54298;52.076;5.264;2023-01-28T03:48:26;11.8;;;10.21;;
67429;SDS011;54298;52.076;5.264;2023-01-28T03:50:05;11.9;;;10.3;;
67429;SDS011;54298;52.076;5.264;2023-01-28T03:53:21;11.1;;;10.0;;
67429;SDS011;54298;52.076;5.264;2023-01-28T03:54:57;12.8;;;11.5;;
67429;SDS011;54298;52.076;5.264;2023-01-28T03:56:36;12.6;;;11.3;;
67429;SDS011;54298;52.076;5.264;2023-01-28T03:59:51;13.3;;;12.0;;
67429;SDS011;54298;52.076;5.264;2023-01-28T04:01:29;12.1;;;10.9;;
67429;SDS011;54298;52.076;5.264;2023-01-28T04:03:15;11.9;;;10.7;;
67429;SDS011;54298;52.076;5.264;2023-01-28T04:04:53;12.6;;;11.3;;
67429;SDS011;54298;52.076;5.264;2023-01-28T04:08:06;12.5;;;11.2;;
67429;SDS011;54298;52.076;5.264;2023-01-28T04:09:42;13.4;;;12.1;;
67429;SDS011;54298;52.076;5.264;2023-01-28T04:11:20;13.0;;;11.7;;
67429;SDS011;54298;52.076;5.264;2023-01-28T04:14:32;12.6;;;11.2;;
67429;SDS011;54298;52.076;5.264;2023-01-28T04:16:08;11.9;;;10.7;;
67429;SDS011;54298;52.076;5.264;2023-01-28T04:17:45;13.2;;;11.8;;
67429;SDS011;54298;52.076;5.264;2023-01-28T04:19:23;12.1;;;10.9;;
67429;SDS011;54298;52.076;5.264;2023-01-28T04:22:36;12.3;;;11.1;;
67429;SDS011;54298;52.076;5.264;2023-01-28T04:24:12;13.8;;;12.5;;
67429;SDS011;54298;52.076;5.264;2023-01-28T04:25:48;12.5;;;11.3;;
67429;SDS011;54298;52.076;5.264;2023-01-28T04:29:02;12.1;;;10.9;;
67429;SDS011;54298;52.076;5.264;2023-01-28T04:30:38;12.6;;;11.3;;
67429;SDS011;54298;52.076;5.264;2023-01-28T04:32:14;13.0;;;11.7;;
67429;SDS011;54298;52.076;5.264;2023-01-28T04:35:26;13.1;;;11.7;;
67429;SDS011;54298;52.076;5.264;2023-01-28T04:37:03;13.5;;;12.2;;
67429;SDS011;54298;52.076;5.264;2023-01-28T04:38:39;13.8;;;12.5;;
67429;SDS011;54298;52.076;5.264;2023-01-28T04:41:52;13.2;;;11.8;;
67429;SDS011;54298;52.076;5.264;2023-01-28T04:43:28;12.4;;;11.2;;
67429;SDS011;54298;52.076;5.264;2023-01-28T04:45:05;12.7;;;11.4;;
67429;SDS011;54298;52.076;5.264;2023-01-28T04:46:43;13.6;;;12.3;;
67429;SDS011;54298;52.076;5.264;2023-01-28T04:49:55;13.2;;;11.9;;
67429;SDS011;54298;52.076;5.264;2023-01-28T04:51:31;13.0;;;11.7;;
67429;SDS011;54298;52.076;5.264;2023-01-28T04:53:07;12.9;;;11.7;;
67429;SDS011;54298;52.076;5.264;2023-01-28T04:56:21;12.2;;;11.0;;
67429;SDS011;54298;52.076;5.264;2023-01-28T04:57:57;14.2;;;12.8;;
67429;SDS011;54298;52.076;5.264;2023-01-28T04:59:34;13.2;;;11.9;;
67429;SDS011;54298;52.076;5.264;2023-01-28T05:02:46;12.0;;;10.8;;
67429;SDS011;54298;52.076;5.264;2023-01-28T05:04:22;13.2;;;11.8;;
67429;SDS011;54298;52.076;5.264;2023-01-28T05:05:58;13.1;;;11.8;;
67429;SDS011;54298;52.076;5.264;2023-01-28T05:07:35;14.0;;;12.6;;
67429;SDS011;54298;52.076;5.264;2023-01-28T05:10:48;12.7;;;11.5;;
67429;SDS011;54298;52.076;5.264;2023-01-28T05:12:24;12.8;;;11.5;;
67429;SDS011;54298;52.076;5.264;2023-01-28T05:14:01;13.5;;;12.2;;
67429;SDS011;54298;52.076;5.264;2023-01-28T05:17:13;12.6;;;11.0;;
67429;SDS011;54298;52.076;5.264;2023-01-28T05:18:50;12.7;;;11.4;;
67429;SDS011;54298;52.076;5.264;2023-01-28T05:20:26;13.4;;;12.1;;
67429;SDS011;54298;52.076;5.264;2023-01-28T05:23:38;13.0;;;11.7;;
67429;SDS011;54298;52.076;5.264;2023-01-28T05:25:14;12.8;;;11.5;;
67429;SDS011;54298;52.076;5.264;2023-01-28T05:26:50;13.0;;;11.7;;
67429;SDS011;54298;52.076;5.264;2023-01-28T05:28:26;13.7;;;11.3;;
67429;SDS011;54298;52.076;5.264;2023-01-28T05:31:43;13.4;;;12.0;;
67429;SDS011;54298;52.076;5.264;2023-01-28T05:33:19;12.6;;;11.4;;
67429;SDS011;54298;52.076;5.264;2023-01-28T05:34:55;12.2;;;10.9;;
67429;SDS011;54298;52.076;5.264;2023-01-28T05:38:07;12.1;;;10.9;;
67429;SDS011;54298;52.076;5.264;2023-01-28T05:39:43;12.6;;;11.3;;
67429;SDS011;54298;52.076;5.264;2023-01-28T05:41:20;12.1;;;10.9;;
67429;SDS011;54298;52.076;5.264;2023-01-28T05:44:32;12.3;;;11.2;;
67429;SDS011;54298;52.076;5.264;2023-01-28T05:46:08;11.1;;;9.81;;
67429;SDS011;54298;52.076;5.264;2023-01-28T05:47:44;11.1;;;10.0;;
67429;SDS011;54298;52.076;5.264;2023-01-28T05:49:21;10.1;;;9.1;;
67429;SDS011;54298;52.076;5.264;2023-01-28T05:52:34;12.2;;;9.81;;
67429;SDS011;54298;52.076;5.264;2023-01-28T05:54:11;10.3;;;9.31;;
67429;SDS011;54298;52.076;5.264;2023-01-28T05:55:47;10.5;;;9.5;;
67429;SDS011;54298;52.076;5.264;2023-01-28T05:59:00;9.71;;;8.71;;
67429;SDS011;54298;52.076;5.264;2023-01-28T06:00:37;10.9;;;9.9;;
67429;SDS011;54298;52.076;5.264;2023-01-28T06:02:13;12.1;;;10.9;;
67429;SDS011;54298;52.076;5.264;2023-01-28T06:05:25;12.6;;;11.4;;
67429;SDS011;54298;52.076;5.264;2023-01-28T06:07:02;11.9;;;10.7;;
67429;SDS011;54298;52.076;5.264;2023-01-28T06:08:38;12.5;;;10.4;;
67429;SDS011;54298;52.076;5.264;2023-01-28T06:10:16;11.1;;;10.0;;
67429;SDS011;54298;52.076;5.264;2023-01-28T06:13:29;11.7;;;10.6;;
67429;SDS011;54298;52.076;5.264;2023-01-28T06:15:06;11.4;;;10.3;;
67429;SDS011;54298;52.076;5.264;2023-01-28T06:16:43;12.1;;;10.8;;
67429;SDS011;54298;52.076;5.264;2023-01-28T06:19:55;11.8;;;10.6;;
67429;SDS011;54298;52.076;5.264;2023-01-28T06:21:31;12.0;;;10.8;;
67429;SDS011;54298;52.076;5.264;2023-01-28T06:23:08;12.2;;;11.0;;
67429;SDS011;54298;52.076;5.264;2023-01-28T06:26:21;13.2;;;11.8;;
67429;SDS011;54298;52.076;5.264;2023-01-28T06:27:57;11.2;;;10.1;;
67429;SDS011;54298;52.076;5.264;2023-01-28T06:29:34;11.2;;;10.1;;
67429;SDS011;54298;52.076;5.264;2023-01-28T06:31:11;11.8;;;10.6;;
67429;SDS011;54298;52.076;5.264;2023-01-28T06:34:29;11.9;;;10.6;;
67429;SDS011;54298;52.076;5.264;2023-01-28T06:36:06;11.2;;;10.1;;
67429;SDS011;54298;52.076;5.264;2023-01-28T06:37:44;12.3;;;11.1;;
67429;SDS011;54298;52.076;5.264;2023-01-28T06:40:57;12.3;;;11.1;;
67429;SDS011;54298;52.076;5.264;2023-01-28T06:42:33;13.7;;;11.7;;
67429;SDS011;54298;52.076;5.264;2023-01-28T06:44:10;12.2;;;11.0;;
67429;SDS011;54298;52.076;5.264;2023-01-28T06:47:23;13.0;;;11.8;;
67429;SDS011;54298;52.076;5.264;2023-01-28T06:48:59;12.4;;;11.2;;
67429;SDS011;54298;52.076;5.264;2023-01-28T06:50:35;13.5;;;12.1;;
67429;SDS011;54298;52.076;5.264;2023-01-28T06:52:11;13.0;;;11.7;;
67429;SDS011;54298;52.076;5.264;2023-01-28T06:55:23;12.9;;;11.6;;
67429;SDS011;54298;52.076;5.264;2023-01-28T06:56:59;14.4;;;13.0;;
67429;SDS011;54298;52.076;5.264;2023-01-28T06:58:36;13.1;;;11.8;;
67429;SDS011;54298;52.076;5.264;2023-01-28T07:01:51;12.6;;;11.3;;
67429;SDS011;54298;52.076;5.264;2023-01-28T07:03:27;13.5;;;12.2;;
67429;SDS011;54298;52.076;5.264;2023-01-28T07:05:03;12.9;;;11.7;;
67429;SDS011;54298;52.076;5.264;2023-01-28T07:08:16;14.2;;;12.7;;
67429;SDS011;54298;52.076;5.264;2023-01-28T07:09:52;14.0;;;12.6;;
67429;SDS011;54298;52.076;5.264;2023-01-28T07:11:29;13.9;;;12.5;;
67429;SDS011;54298;52.076;5.264;2023-01-28T07:13:05;13.1;;;11.8;;
67429;SDS011;54298;52.076;5.264;2023-01-28T07:16:17;14.1;;;12.7;;
67429;SDS011;54298;52.076;5.264;2023-01-28T07:17:53;14.0;;;12.5;;
67429;SDS011;54298;52.076;5.264;2023-01-28T07:19:29;13.5;;;12.2;;
67429;SDS011;54298;52.076;5.264;2023-01-28T07:22:43;13.5;;;12.1;;
67429;SDS011;54298;52.076;5.264;2023-01-28T07:24:20;13.5;;;12.1;;
67429;SDS011;54298;52.076;5.264;2023-01-28T07:25:59;13.1;;;11.8;;
67429;SDS011;54298;52.076;5.264;2023-01-28T07:29:12;14.0;;;12.5;;
67429;SDS011;54298;52.076;5.264;2023-01-28T07:30:48;15.5;;;12.6;;
67429;SDS011;54298;52.076;5.264;2023-01-28T07:32:26;14.1;;;12.7;;
67429;SDS011;54298;52.076;5.264;2023-01-28T07:34:02;14.1;;;11.4;;
67429;SDS011;54298;52.076;5.264;2023-01-28T07:37:14;13.6;;;12.2;;
67429;SDS011;54298;52.076;5.264;2023-01-28T07:38:51;13.7;;;12.3;;
67429;SDS011;54298;52.076;5.264;2023-01-28T07:40:27;14.0;;;12.6;;
67429;SDS011;54298;52.076;5.264;2023-01-28T07:43:40;14.3;;;12.8;;
67429;SDS011;54298;52.076;5.264;2023-01-28T07:45:16;14.1;;;12.3;;
67429;SDS011;54298;52.076;5.264;2023-01-28T07:46:53;13.7;;;12.3;;
67429;SDS011;54298;52.076;5.264;2023-01-28T07:50:07;13.8;;;12.4;;
67429;SDS011;54298;52.076;5.264;2023-01-28T07:51:46;13.6;;;12.2;;
67429;SDS011;54298;52.076;5.264;2023-01-28T07:53:22;15.6;;;14.1;;
67429;SDS011;54298;52.076;5.264;2023-01-28T07:54:58;14.7;;;13.2;;
67429;SDS011;54298;52.076;5.264;2023-01-28T07:58:10;14.0;;;12.5;;
67429;SDS011;54298;52.076;5.264;2023-01-28T07:59:47;15.6;;;13.9;;
67429;SDS011;54298;52.076;5.264;2023-01-28T08:01:23;15.1;;;13.5;;
67429;SDS011;54298;52.076;5.264;2023-01-28T08:04:39;14.9;;;13.1;;
67429;SDS011;54298;52.076;5.264;2023-01-28T08:06:17;14.7;;;13.1;;
67429;SDS011;54298;52.076;5.264;2023-01-28T08:07:53;14.8;;;13.2;;
67429;SDS011;54298;52.076;5.264;2023-01-28T08:09:29;16.0;;;13.5;;
67429;SDS011;54298;52.076;5.264;2023-01-28T08:12:49;14.4;;;12.3;;
67429;SDS011;54298;52.076;5.264;2023-01-28T08:14:26;15.0;;;13.4;;
67429;SDS011;54298;52.076;5.264;2023-01-28T08:16:04;15.7;;;13.8;;
67429;SDS011;54298;52.076;5.264;2023-01-28T08:19:17;14.2;;;12.7;;
67429;SDS011;54298;52.076;5.264;2023-01-28T08:20:54;15.0;;;13.5;;
67429;SDS011;54298;52.076;5.264;2023-01-28T08:22:31;15.9;;;14.2;;
67429;SDS011;54298;52.076;5.264;2023-01-28T08:24:07;15.5;;;13.8;;
67429;SDS011;54298;52.076;5.264;2023-01-28T08:27:20;15.9;;;14.3;;
67429;SDS011;54298;52.076;5.264;2023-01-28T08:28:56;15.7;;;13.6;;
67429;SDS011;54298;52.076;5.264;2023-01-28T08:30:33;18.7;;;15.5;;
67429;SDS011;54298;52.076;5.264;2023-01-28T08:33:46;15.2;;;13.6;;
67429;SDS011;54298;52.076;5.264;2023-01-28T08:35:22;15.9;;;14.2;;
67429;SDS011;54298;52.076;5.264;2023-01-28T08:36:58;16.0;;;13.7;;
67429;SDS011;54298;52.076;5.264;2023-01-28T08:41:47;15.2;;;13.6;;
67429;SDS011;54298;52.076;5.264;2023-01-28T08:43:23;16.8;;;14.4;;
67429;SDS011;54298;52.076;5.264;2023-01-28T08:45:00;15.3;;;13.5;;
67429;SDS011;54298;52.076;5.264;2023-01-28T08:48:13;24.3;;;17.8;;
67429;SDS011;54298;52.076;5.264;2023-01-28T08:49:52;16.7;;;14.0;;
67429;SDS011;54298;52.076;5.264;2023-01-28T08:51:28;16.7;;;14.0;;
67429;SDS011;54298;52.076;5.264;2023-01-28T08:54:45;23.6;;;17.7;;
67429;SDS011;54298;52.076;5.264;2023-01-28T08:56:21;14.2;;;12.1;;
67429;SDS011;54298;52.076;5.264;2023-01-28T08:58:00;13.1;;;11.7;;
67429;SDS011;54298;52.076;5.264;2023-01-28T09:01:20;14.6;;;11.7;;
67429;SDS011;54298;52.076;5.264;2023-01-28T09:02:56;14.2;;;11.4;;
67429;SDS011;54298;52.076;5.264;2023-01-28T09:04:32;13.6;;;12.1;;
67429;SDS011;54298;52.076;5.264;2023-01-28T09:06:08;14.0;;;12.6;;
67429;SDS011;54298;52.076;5.264;2023-01-28T09:09:21;13.8;;;12.4;;
67429;SDS011;54298;52.076;5.264;2023-01-28T09:10:58;17.2;;;14.9;;
67429;SDS011;54298;52.076;5.264;2023-01-28T09:12:35;13.8;;;12.4;;
67429;SDS011;54298;52.076;5.264;2023-01-28T09:15:50;16.5;;;12.9;;
67429;SDS011;54298;52.076;5.264;2023-01-28T09:17:26;14.3;;;12.4;;
67429;SDS011;54298;52.076;5.264;2023-01-28T09:19:02;15.1;;;13.5;;
67429;SDS011;54298;52.076;5.264;2023-01-28T09:20:38;13.6;;;11.9;;
67429;SDS011;54298;52.076;5.264;2023-01-28T09:23:54;14.6;;;12.1;;
67429;SDS011;54298;52.076;5.264;2023-01-28T09:25:31;12.7;;;11.4;;
67429;SDS011;54298;52.076;5.264;2023-01-28T09:27:07;12.7;;;11.4;;
67429;SDS011;54298;52.076;5.264;2023-01-28T09:30:23;13.4;;;11.5;;
67429;SDS011;54298;52.076;5.264;2023-01-28T09:32:00;13.5;;;10.21;;
67429;SDS011;54298;52.076;5.264;2023-01-28T09:33:37;12.6;;;10.5;;
67429;SDS011;54298;52.076;5.264;2023-01-28T09:35:17;13.1;;;11.0;;
67429;SDS011;54298;52.076;5.264;2023-01-28T09:38:29;11.8;;;10.6;;
67429;SDS011;54298;52.076;5.264;2023-01-28T09:40:09;13.9;;;11.5;;
67429;SDS011;54298;52.076;5.264;2023-01-28T09:41:55;14.0;;;12.6;;
67429;SDS011;54298;52.076;5.264;2023-01-28T09:43:58;11.3;;;9.9;;
67429;SDS011;54298;52.076;5.264;2023-01-28T09:45:41;12.4;;;10.4;;
67429;SDS011;54298;52.076;5.264;2023-01-28T09:49:05;11.8;;;10.3;;
67429;SDS011;54298;52.076;5.264;2023-01-28T09:50:52;12.4;;;11.1;;
67429;SDS011;54298;52.076;5.264;2023-01-28T09:52:29;10.6;;;9.5;;
67429;SDS011;54298;52.076;5.264;2023-01-28T09:54:13;11.9;;;10.5;;
67429;SDS011;54298;52.076;5.264;2023-01-28T09:57:42;11.8;;;10.5;;
67429;SDS011;54298;52.076;5.264;2023-01-28T09:59:23;10.9;;;9.71;;
67429;SDS011;54298;52.076;5.264;2023-01-28T10:01:03;11.9;;;10.1;;
67429;SDS011;54298;52.076;5.264;2023-01-28T10:03:20;11.2;;;8.5;;
67429;SDS011;54298;52.076;5.264;2023-01-28T10:05:13;10.3;;;8.4;;
67429;SDS011;54298;52.076;5.264;2023-01-28T10:06:57;9.5;;;7.8;;
67429;SDS011;54298;52.076;5.264;2023-01-28T10:09:03;8.5;;;7.6;;
67429;SDS011;54298;52.076;5.264;2023-01-28T10:11:09;8.71;;;7.8;;
67429;SDS011;54298;52.076;5.264;2023-01-28T10:13:00;9.71;;;8.71;;
67429;SDS011;54298;52.076;5.264;2023-01-28T10:16:41;11.9;;;8.9;;
67429;SDS011;54298;52.076;5.264;2023-01-28T10:18:26;14.1;;;10.3;;
67429;SDS011;54298;52.076;5.264;2023-01-28T10:20:13;8.6;;;7.0;;
67429;SDS011;54298;52.076;5.264;2023-01-28T10:21:57;9.5;;;7.5;;
67429;SDS011;54298;52.076;5.264;2023-01-28T10:23:40;9.5;;;7.3;;
67429;SDS011;54298;52.076;5.264;2023-01-28T10:25:30;8.81;;;6.8;;
67429;SDS011;54298;52.076;5.264;2023-01-28T10:28:52;9.31;;;7.1;;
67429;SDS011;54298;52.076;5.264;2023-01-28T10:30:43;10.4;;;6.5;;
67429;SDS011;54298;52.076;5.264;2023-01-28T10:32:22;6.7;;;5.9;;
67429;SDS011;54298;52.076;5.264;2023-01-28T10:34:04;7.4;;;5.9;;
67429;SDS011;54298;52.076;5.264;2023-01-28T10:37:18;7.9;;;6.0;;
67429;SDS011;54298;52.076;5.264;2023-01-28T10:38:55;6.7;;;5.0;;
67429;SDS011;54298;52.076;5.264;2023-01-28T10:40:31;8.71;;;6.6;;
67429;SDS011;54298;52.076;5.264;2023-01-28T10:44:01;7.0;;;5.7;;
67429;SDS011;54298;52.076;5.264;2023-01-28T10:45:39;7.7;;;5.8;;
67429;SDS011;54298;52.076;5.264;2023-01-28T10:47:30;6.2;;;4.7;;
67429;SDS011;54298;52.076;5.264;2023-01-28T10:49:14;6.1;;;4.91;;
67429;SDS011;54298;52.076;5.264;2023-01-28T10:50:54;8.2;;;5.9;;
67429;SDS011;54298;52.076;5.264;2023-01-28T10:54:24;6.1;;;4.2;;
67429;SDS011;54298;52.076;5.264;2023-01-28T10:56:03;7.4;;;4.91;;
67429;SDS011;54298;52.076;5.264;2023-01-28T10:57:42;6.6;;;4.91;;
67429;SDS011;54298;52.076;5.264;2023-01-28T10:59:21;8.0;;;5.5;;
67429;SDS011;54298;52.076;5.264;2023-01-28T11:01:02;6.3;;;4.41;;
67429;SDS011;54298;52.076;5.264;2023-01-28T11:04:21;6.3;;;4.2;;
67429;SDS011;54298;52.076;5.264;2023-01-28T11:05:59;9.6;;;6.2;;
67429;SDS011;54298;52.076;5.264;2023-01-28T11:07:37;5.4;;;4.61;;
67429;SDS011;54298;52.076;5.264;2023-01-28T11:10:59;7.9;;;4.61;;
67429;SDS011;54298;52.076;5.264;2023-01-28T11:12:35;5.5;;;3.9;;
67429;SDS011;54298;52.076;5.264;2023-01-28T11:14:18;5.3;;;4.1;;
67429;SDS011;54298;52.076;5.264;2023-01-28T11:15:56;9.71;;;6.0;;
67429;SDS011;54298;52.076;5.264;2023-01-28T11:19:28;7.5;;;5.0;;
67429;SDS011;54298;52.076;5.264;2023-01-28T11:21:13;7.6;;;4.8;;
67429;SDS011;54298;52.076;5.264;2023-01-28T11:22:54;5.9;;;4.5;;
67429;SDS011;54298;52.076;5.264;2023-01-28T11:24:32;5.8;;;4.7;;
67429;SDS011;54298;52.076;5.264;2023-01-28T11:26:13;8.5;;;5.11;;
67429;SDS011;54298;52.076;5.264;2023-01-28T11:29:30;6.7;;;5.11;;
67429;SDS011;54298;52.076;5.264;2023-01-28T11:31:09;5.9;;;4.41;;
67429;SDS011;54298;52.076;5.264;2023-01-28T11:32:53;6.2;;;4.1;;
67429;SDS011;54298;52.076;5.264;2023-01-28T11:34:47;5.2;;;3.8;;
67429;SDS011;54298;52.076;5.264;2023-01-28T11:38:10;6.3;;;4.5;;
67429;SDS011;54298;52.076;5.264;2023-01-28T11:40:01;4.91;;;4.0;;
67429;SDS011;54298;52.076;5.264;2023-01-28T11:41:48;4.91;;;4.0;;
67429;SDS011;54298;52.076;5.264;2023-01-28T11:43:27;6.4;;;4.61;;
67429;SDS011;54298;52.076;5.264;2023-01-28T11:45:08;7.6;;;5.0;;
67429;SDS011;54298;52.076;5.264;2023-01-28T11:49:32;7.1;;;4.0;;
67429;SDS011;54298;52.076;5.264;2023-01-28T11:51:26;6.0;;;4.3;;
67429;SDS011;54298;52.076;5.264;2023-01-28T11:55:39;5.7;;;3.4;;
67429;SDS011;54298;52.076;5.264;2023-01-28T11:59:16;6.1;;;3.3;;
67429;SDS011;54298;52.076;5.264;2023-01-28T12:01:08;5.5;;;3.4;;
67429;SDS011;54298;52.076;5.264;2023-01-28T12:02:52;6.1;;;4.5;;
67429;SDS011;54298;52.076;5.264;2023-01-28T12:04:41;7.4;;;4.61;;
67429;SDS011;54298;52.076;5.264;2023-01-28T12:06:42;6.2;;;4.7;;
67429;SDS011;54298;52.076;5.264;2023-01-28T12:08:33;4.7;;;3.1;;
67429;SDS011;54298;52.076;5.264;2023-01-28T12:10:19;5.7;;;3.7;;
67429;SDS011;54298;52.076;5.264;2023-01-28T12:14:15;6.2;;;3.3;;
67429;SDS011;54298;52.076;5.264;2023-01-28T12:18:29;5.8;;;3.3;;
67429;SDS011;54298;52.076;5.264;2023-01-28T12:22:11;6.3;;;3.4;;
67429;SDS011;54298;52.076;5.264;2023-01-28T12:25:28;5.8;;;2.8;;
67429;SDS011;54298;52.076;5.264;2023-01-28T12:27:22;5.8;;;2.9;;
67429;SDS011;54298;52.076;5.264;2023-01-28T12:29:14;4.7;;;2.9;;
67429;SDS011;54298;52.076;5.264;2023-01-28T12:31:07;6.0;;;3.1;;
67429;SDS011;54298;52.076;5.264;2023-01-28T12:35:13;4.5;;;2.6;;
67429;SDS011;54298;52.076;5.264;2023-01-28T12:37:34;6.0;;;2.9;;
67429;SDS011;54298;52.076;5.264;2023-01-28T12:39:27;4.61;;;2.8;;
67429;SDS011;54298;52.076;5.264;2023-01-28T12:42:59;6.0;;;3.0;;
67429;SDS011;54298;52.076;5.264;2023-01-28T12:44:41;6.7;;;3.5;;
67429;SDS011;54298;52.076;5.264;2023-01-28T12:46:27;5.9;;;3.5;;
67429;SDS011;54298;52.076;5.264;2023-01-28T12:48:15;4.91;;;3.3;;
67429;SDS011;54298;52.076;5.264;2023-01-28T12:49:58;4.91;;;3.3;;
67429;SDS011;54298;52.076;5.264;2023-01-28T12:53:35;6.8;;;3.6;;
67429;SDS011;54298;52.076;5.264;2023-01-28T12:55:19;6.0;;;3.5;;
67429;SDS011;54298;52.076;5.264;2023-01-28T12:57:13;7.2;;;3.2;;
67429;SDS011;54298;52.076;5.264;2023-01-28T12:58:59;6.1;;;3.4;;
67429;SDS011;54298;52.076;5.264;2023-01-28T13:00:41;5.8;;;3.3;;
67429;SDS011;54298;52.076;5.264;2023-01-28T13:02:24;10.0;;;5.5;;
67429;SDS011;54298;52.076;5.264;2023-01-28T13:05:49;29.7;;;17.2;;
67429;SDS011;54298;52.076;5.264;2023-01-28T13:07:32;41.6;;;21.0;;
67429;SDS011;54298;52.076;5.264;2023-01-28T13:09:15;93.3;;;44.9;;
67429;SDS011;54298;52.076;5.264;2023-01-28T13:10:54;25.1;;;10.3;;
67429;SDS011;54298;52.076;5.264;2023-01-28T13:14:13;11.2;;;6.4;;
67429;SDS011;54298;52.076;5.264;2023-01-28T13:15:50;11.2;;;6.4;;
67429;SDS011;54298;52.076;5.264;2023-01-28T13:17:28;6.7;;;3.6;;
67429;SDS011;54298;52.076;5.264;2023-01-28T13:19:07;7.3;;;3.1;;
67429;SDS011;54298;52.076;5.264;2023-01-28T13:22:35;7.3;;;3.1;;
67429;SDS011;54298;52.076;5.264;2023-01-28T13:24:20;5.5;;;3.3;;
67429;SDS011;54298;52.076;5.264;2023-01-28T13:26:10;5.7;;;3.5;;
67429;SDS011;54298;52.076;5.264;2023-01-28T13:28:05;4.5;;;2.7;;
67429;SDS011;54298;52.076;5.264;2023-01-28T13:30:03;6.7;;;3.1;;